Austin, Indiana
Current Conditions -  °F | °C
As of 2:53 AM on Saturday 20 Dec 2014 (Local Time) from KIMS Reporting Station
Overcast Overcast  
Wind Chill: -1°   Ceiling: 2400
Heat Index: -1°   Visibility: 10mi
Dew Point: -5°   Wind: 0mph
Humidity: 75%   Direction: NA
Pressure: 30.29"   Gusts: NA
Location:  38.76°N, 85.81°W
Report Text: KIMS 200753Z AUTO 00000KT 10SM BKN024 OVC070 M01/M05 A3029 RMK AO1
Loading
Personal Weather Stations






























Interactive Weather Map New forecast layout! Learn more

10-Day Weather Forecast

Advertisements
Track Severe Weather on mobile